createdAt,value
2023-03-24T00:02:04.693Z,8.60
2023-03-24T00:12:05.927Z,13.07
2023-03-24T00:22:08.058Z,14.13
2023-03-24T00:32:09.326Z,8.90
2023-03-24T00:42:10.545Z,11.05
2023-03-24T00:52:11.853Z,8.93
2023-03-24T01:02:13.295Z,10.70
2023-03-24T01:12:14.535Z,6.05
2023-03-24T01:22:16.513Z,6.95
2023-03-24T01:32:17.752Z,6.75
2023-03-24T01:42:19.010Z,6.28
2023-03-24T01:52:20.235Z,7.28
2023-03-24T02:02:22.313Z,5.63
2023-03-24T02:12:23.717Z,8.77
2023-03-24T02:22:24.933Z,8.68
2023-03-24T02:32:26.195Z,7.55
2023-03-24T02:42:27.464Z,9.38
2023-03-24T02:52:28.722Z,6.38
2023-03-24T03:02:30.166Z,9.25
2023-03-24T03:12:31.402Z,9.63
2023-03-24T03:22:32.640Z,7.15
2023-03-24T03:32:34.669Z,6.90
2023-03-24T03:42:35.989Z,8.85
2023-03-24T03:52:37.226Z,8.93
2023-03-24T04:02:38.562Z,5.70
2023-03-24T04:12:39.893Z,9.00
2023-03-24T04:22:41.125Z,11.10
2023-03-24T04:32:43.636Z,10.55
2023-03-24T04:42:45.314Z,9.80
2023-03-24T04:52:46.614Z,12.35
2023-03-24T05:02:47.920Z,12.93
2023-03-24T05:12:49.190Z,11.90
2023-03-24T05:22:50.411Z,15.18
2023-03-24T05:32:51.742Z,14.95
2023-03-24T05:42:53.014Z,14.48
2023-03-24T05:52:54.278Z,14.77
2023-03-24T06:02:55.740Z,12.32
2023-03-24T06:12:57.074Z,11.45
2023-03-24T06:22:59.718Z,14.07
2023-03-24T06:33:01.165Z,9.75
2023-03-24T06:43:02.466Z,13.38
2023-03-24T06:53:03.688Z,10.15
2023-03-24T07:03:06.376Z,11.95
2023-03-24T07:13:07.887Z,10.40
2023-03-24T07:23:09.383Z,11.43
2023-03-24T07:33:12.406Z,9.55
2023-03-24T07:43:14.241Z,9.23
2023-03-24T07:53:19.966Z,8.15
2023-03-24T08:03:28.066Z,7.82
2023-03-24T08:13:29.646Z,8.82
2023-03-24T08:23:30.851Z,6.32
2023-03-24T08:33:32.058Z,7.78
2023-03-24T08:43:33.292Z,6.45
2023-03-24T08:53:34.527Z,9.32
2023-03-24T09:03:36.009Z,8.05
2023-03-24T09:13:37.245Z,8.40
2023-03-24T09:23:38.750Z,10.30
2023-03-24T09:33:39.993Z,11.88
2023-03-24T09:43:41.216Z,10.90
2023-03-24T09:53:43.154Z,9.45
2023-03-24T10:03:44.671Z,9.75
2023-03-24T10:13:46.009Z,9.77
2023-03-24T10:23:47.302Z,8.38
2023-03-24T10:33:48.542Z,10.02
2023-03-24T10:43:49.828Z,11.23
2023-03-24T10:53:52.040Z,12.15
2023-03-24T11:03:53.535Z,8.77
2023-03-24T11:13:54.859Z,8.60
2023-03-24T11:23:56.259Z,6.38
2023-03-24T11:33:57.791Z,4.47
2023-03-24T11:43:59.015Z,4.60
2023-03-24T11:54:00.326Z,7.20
2023-03-24T12:04:02.859Z,4.50
2023-03-24T12:14:04.183Z,5.80
2023-03-24T12:24:06.021Z,4.97
2023-03-24T12:34:07.332Z,5.97
2023-03-24T12:44:08.576Z,5.40
2023-03-24T12:54:09.813Z,5.35
2023-03-24T13:04:11.419Z,4.43
2023-03-24T13:14:12.611Z,5.55
2023-03-24T13:24:15.352Z,4.88
2023-03-24T13:34:16.830Z,4.38
2023-03-24T13:44:18.035Z,7.30
2023-03-24T13:54:19.224Z,7.05
2023-03-24T14:04:20.768Z,9.32
2023-03-24T14:14:22.063Z,9.25
2023-03-24T14:24:23.279Z,5.90
2023-03-24T14:34:25.469Z,5.28
2023-03-24T14:44:26.800Z,6.57
2023-03-24T14:54:28.096Z,9.27
2023-03-24T15:04:29.517Z,5.53
2023-03-24T15:14:30.898Z,7.40
2023-03-24T15:24:32.153Z,4.63
2023-03-24T15:34:33.824Z,5.38
2023-03-24T15:44:35.364Z,5.50
2023-03-24T15:54:36.600Z,6.60
2023-03-24T16:04:38.779Z,3.75
2023-03-24T16:14:40.183Z,4.90
2023-03-24T16:24:41.520Z,4.55
2023-03-24T16:34:44.031Z,5.95
2023-03-24T16:44:46.363Z,2.63
2023-03-24T16:54:47.624Z,4.60
2023-03-24T17:04:49.917Z,3.50
2023-03-24T17:25:08.890Z,6.07
2023-03-24T17:35:10.219Z,5.65
2023-03-24T17:45:11.939Z,10.80
2023-03-24T17:55:13.212Z,7.15
2023-03-24T18:05:16.103Z,5.40
2023-03-24T18:15:17.637Z,6.68
2023-03-24T18:25:18.938Z,6.60
2023-03-24T18:35:20.455Z,5.72
2023-03-24T18:45:21.733Z,5.60
2023-03-24T18:55:24.309Z,4.30
2023-03-24T19:05:25.872Z,5.47
2023-03-24T19:15:29.805Z,5.10
2023-03-24T19:25:31.816Z,4.47
2023-03-24T19:35:33.131Z,9.48
2023-03-24T19:45:34.491Z,6.45
2023-03-24T19:55:36.304Z,4.30
2023-03-24T20:05:37.782Z,4.00
2023-03-24T20:15:39.050Z,6.38
2023-03-24T20:25:40.523Z,5.50
2023-03-24T20:35:42.111Z,5.35
2023-03-24T20:45:43.493Z,4.97
2023-03-24T20:55:49.050Z,11.40
2023-03-24T21:05:50.854Z,8.32
2023-03-24T21:15:52.277Z,8.85
2023-03-24T21:25:53.648Z,6.13
2023-03-24T21:35:55.147Z,6.60
2023-03-24T21:45:56.538Z,7.82
2023-03-24T21:56:04.443Z,7.85
2023-03-24T22:06:06.039Z,5.03
2023-03-24T22:16:07.353Z,7.57
2023-03-24T22:26:08.658Z,5.93
2023-03-24T22:36:09.958Z,5.65
2023-03-24T22:46:11.382Z,4.13
2023-03-24T22:56:12.753Z,6.57
2023-03-24T23:06:15.939Z,6.00
2023-03-24T23:16:17.338Z,4.78
2023-03-24T23:26:26.035Z,3.85
2023-03-24T23:36:28.500Z,7.07
2023-03-24T23:46:29.939Z,4.00
2023-03-24T23:56:36.721Z,4.40
